Share

Gallup, NM

Gallup Municipal (KGUP) Elev 6470 ft | 35.51 °N, 108.79 °W | Change Station

Current weather conditions updated 19 minutes ago

Clear
Clear
70 °F
Feels Like 70 °F
N
15
Wind Variable Wind from SW
Gusts 25 mph
Sunrise 6:38 AM
Sunset 7:50 PM
Moon Waning Gibbous

Today is forecast to be nearly the same temperature as yesterday.

Pressure 29.83 in
Visibility 10.0 miles
Clouds Clear
Dew Point 17 °F
Humidity 13%
Rainfall 0.00 in
Snow Depth Not available.
UV 11 out of 16
Pollen 9.60 out of 12
Air Quality Not available.
Flu Activity Local Activity
METAR KGUP 181753Z AUTO 22013G22KT 10SM CLR 21/M08 A3013 RMK AO2 SLP100 T02111083 10217 21006 58007

More Conditions Fewer Conditions

Pressure 29.83 in
Visibility 10.0 miles
Clouds Clear
Dew Point 17 °F
Humidity 13%
Rainfall 0.00 in
Snow Depth Not available.
UV 11 out of 16
Pollen 9.60 out of 12
Air Quality Not available.
Flu Activity Local Activity
METAR KGUP 181753Z AUTO 22013G22KT 10SM CLR 21/M08 A3013 RMK AO2 SLP100 T02111083 10217 21006 58007

More Conditions Fewer Conditions

10-Day Weather Forecast

Almanac

Astronomy

Apr. 18, 2014 Rise Set
Actual Time 6:38 AM MDT 7:50 PM MDT
Civil Twilight 6:12 AM MDT 8:17 PM MDT
Nautical Twilight 5:40 AM MDT 8:48 PM MDT
Astronomical Twilight 5:08 AM MDT 9:21 PM MDT
Moon 11:34 PM MDT 9:08 AM MDT
Length of Visible Light 14h 04m
Length of Day
13h 12m
Tomorrow will be 2m 6s longer.
Waning Gibbous, 86% of the Moon is Illuminated
Today
Waning Gibbous
Apr 22
Last Quarter
Apr 29
New
May 6
First Quarter
May 14
Full

Today's Extremes

State Highs State Lows

Community

  • What's for Lunch?
    What's for Lunch?
  • SUNRISE THROUGH THE TREES.
    SUNRISE THROUGH THE TREES.
  • Dog Wood Blossoms
    Dog Wood Blossoms
  • Morning Light
    Morning Light
  • New Day
    New Day

WunderPhotos

Upload Photos

1,702,443 photos uploaded!

Nearby

Snow Depth

Station Depth Elevation
Senorita Divide #2 0 in 8600 ft
Frisco Divide 0 in 8000 ft
Quemazon 0 in 9500 ft
Silver Creek Divide 1 in 9000 ft
Bateman 10 in 9300 ft

Coastal Water Temperatures

Place Temperature
No Stations Reporting

Earthquake Activity

City Distance Mag. Time & Date
No recent earthquake activity has been reported nearby.
Minimum magnitude displayed is 2.5.

Nearby Weather Stations

There are no personal weather stations in this area.

What do you think?

We're not finished. Please let us know what you like, what you don't like, and what you are still missing.